Home > Products > Valid Products > TAF

000
FTUS42 KJAX 191100
TAFCRG
TAF
KCRG 191134Z 1912/2012 03005KT P6SM VCSH FEW025 OVC250
      TEMPO 1912/1915 4SM SHRA BKN025
     FM191500 06005KT P6SM -SHRA VCTS SCT025CB BKN040 BKN250
      TEMPO 1915/1919 SHRA BKN020
     FM191900 07007KT P6SM -SHRA BKN025
     FM200400 07003KT P6SM VCSH BKN040 BKN250=



000
FTUS42 KJAX 191100
TAFSSI
TAF
KSSI 191134Z 1912/2012 05005KT P6SM -SHRA VCTS BKN025CB BKN040
      OVC250
      TEMPO 1912/1915 2SM TSRA BKN020CB
     FM191500 07007KT P6SM VCSH SCT025 BKN250
      TEMPO 1915/1918 SHRA BKN020
     FM191800 09010KT P6SM SHRA BKN025 BKN250
     FM200400 05002KT P6SM VCSH BKN040 BKN250=



000
FTUS42 KJAX 191100
TAFGNV
TAF
KGNV 191134Z 1912/2012 VRB04KT P6SM FEW020 OVC250
     FM191500 06004KT P6SM VCSH SCT025 BKN250
     FM191900 07006KT P6SM -SHRA VCTS OVC035CB
      TEMPO 1920/1924 3SM TSRA OVC025CB
     FM200400 05002KT P6SM VCSH BKN040 BKN250=



000
FTUS42 KJAX 191100
TAFJAX
TAF
KJAX 191134Z 1912/2012 03005KT P6SM VCSH FEW025 OVC250
      TEMPO 1912/1915 4SM SHRA BKN025
     FM191500 06005KT P6SM VCSH SCT025 SCT040 BKN250
      TEMPO 1915/1919 SHRA BKN020
     FM191900 07007KT P6SM -SHRA BKN025
     FM200400 07003KT P6SM VCSH BKN040 BKN250=



000
FTUS42 KJAX 191000 AAC
TAFSSI
TAF AMD
KSSI 191043Z 1911/2006 VRB03KT P6SM -SHRA VCTS BKN025CB OVC250
      TEMPO 1911/1912 VRB09G17KT 3SM TSRA OVC020CB
     FM191400 07007KT P6SM VCSH SCT025 BKN250
     FM191800 09010KT P6SM -SHRA VCTS OVC035CB
      TEMPO 1920/1924 3SM TSRA OVC025CB=



000
FTUS42 KJAX 191000 AAB
TAFSSI
TAF AMD
KSSI 191016Z 1910/2006 VRB03KT P6SM -SHRA VCTS BKN025CB OVC250
      TEMPO 1910/1912 3SM TSRA OVC020CB
     FM191400 07007KT P6SM VCSH SCT025 BKN250
     FM191800 09010KT P6SM -SHRA VCTS OVC035CB
      TEMPO 1920/1924 3SM TSRA OVC025CB=



000
FTUS42 KJAX 191000 AAA
TAFGNV
TAF AMD
KGNV 191001Z 1910/2006 05002KT P6SM FEW020 OVC250
     FM191500 06004KT P6SM VCSH SCT025 BKN250
     FM191900 07006KT P6SM -SHRA VCTS OVC035CB
      TEMPO 1920/1924 3SM TSRA OVC025CB
     FM200400 05002KT P6SM VCSH BKN040 BKN250=



000
FTUS42 KJAX 191000 AAA
TAFCRG
TAF AMD
KCRG 191001Z 1910/2006 VRB02KT P6SM FEW020 OVC250
     FM191500 08005KT P6SM VCSH SCT025 BKN250
     FM191900 09008KT P6SM -SHRA VCTS OVC035CB
      TEMPO 1920/1924 3SM TSRA OVC025CB
     FM200400 09003KT P6SM -SHRA BKN040 BKN250=



000
FTUS42 KJAX 190600 AAA
TAFSSI
TAF AMD
KSSI 190644Z 1907/2006 VRB03KT P6SM VCSH BKN025 OVC250
     FM190900 VRB03KT P6SM -SHRA VCTS BKN025CB OVC250
     FM191400 07007KT P6SM VCSH SCT025 BKN250
     FM191800 09010KT P6SM -SHRA VCTS OVC035CB
      TEMPO 1920/1924 3SM TSRA OVC025CB=



000
FTUS42 KJAX 190500
TAFSSI
TAF
KSSI 190520Z 1906/2006 VRB03KT P6SM VCSH SCT020 OVC250
     FM191400 07007KT P6SM VCSH SCT025 BKN250
     FM191800 09010KT P6SM -SHRA VCTS OVC035CB
      TEMPO 1920/1924 3SM TSRA OVC025CB=



000
FTUS42 KJAX 190500
TAFJAX
TAF
KJAX 190520Z 1906/2006 VRB02KT P6SM FEW020 OVC250
      TEMPO 1908/1911 4SM BR
     FM191500 06005KT P6SM VCSH SCT025 BKN250
     FM191900 07007KT P6SM -SHRA VCTS OVC035CB
      TEMPO 1920/1924 3SM TSRA OVC025CB
     FM200400 07003KT P6SM VCSH BKN040 BKN250=



000
FTUS42 KJAX 190500
TAFCRG
TAF
KCRG 190520Z 1906/2006 VRB02KT P6SM FEW020 OVC250
      TEMPO 1909/1911 5SM BR
     FM191500 08005KT P6SM VCSH SCT025 BKN250
     FM191900 09008KT P6SM -SHRA VCTS OVC035CB
      TEMPO 1920/1924 3SM TSRA OVC025CB
     FM200400 09003KT P6SM -SHRA BKN040 BKN250=



000
FTUS42 KJAX 190500
TAFGNV
TAF
KGNV 190520Z 1906/2006 VRB02KT P6SM FEW020 OVC250
     FM190800 00000KT 3SM BR FEW020 OVC250
     FM191200 05002KT P6SM FEW020 OVC250
     FM191500 06004KT P6SM VCSH SCT025 BKN250
     FM191900 07006KT P6SM -SHRA VCTS OVC035CB
      TEMPO 1920/1924 3SM TSRA OVC025CB
     FM200400 05002KT P6SM VCSH BKN040 BKN250=



000
FTUS42 KJAX 182300
TAFJAX
TAF
KJAX 182338Z 1900/1924 08004KT P6SM VCSH SCT035 BKN250
     FM190800 00000KT P6SM SCT015 BKN200
     FM191400 06006KT P6SM VCSH SCT025 BKN200
     FM191800 06007KT P6SM VCTS BKN035CB=



000
FTUS42 KJAX 182300
TAFCRG
TAF
KCRG 182338Z 1900/1924 10005KT P6SM SCT035 BKN250
     FM190800 00000KT P6SM SCT015 BKN200
     FM191400 04006KT P6SM VCSH SCT025 BKN200
     FM191800 07008KT P6SM VCTS BKN035CB=



000
FTUS42 KJAX 182300
TAFGNV
TAF
KGNV 182338Z 1900/1924 VRB03KT P6SM SCT040 BKN250
     FM191000 00000KT 4SM BR FEW010 BKN250
     FM191400 07005KT P6SM SCT015 BKN200
     FM191800 09006KT P6SM VCTS BKN040CB=



000
FTUS42 KJAX 182300
TAFSSI
TAF
KSSI 182338Z 1900/1924 10006KT P6SM VCSH SCT025 BKN060 BKN250
     FM190300 12005KT P6SM FEW015 SCT040 BKN200
     FM190800 16006KT P6SM VCSH SCT020 BKN200
     FM191400 04007KT P6SM VCSH SCT025 BKN200
     FM191800 07010KT P6SM VCTS BKN035CB=



000
FTUS42 KJAX 181700
TAFGNV
TAF
KGNV 181732Z 1818/1918 35003KT P6SM SCT035 BKN250
     FM182000 10006KT P6SM BKN035 BKN250
     FM190200 00000KT P6SM SCT040 BKN250
     FM191000 00000KT 4SM BR FEW010 BKN250
     FM191400 07005KT P6SM SCT015 BKN200=



000
FTUS42 KJAX 181700
TAFSSI
TAF
KSSI 181732Z 1818/1918 13006KT P6SM VCSH SCT035 BKN060 BKN250
     FM190300 14005KT P6SM FEW015 SCT040 BKN200
     FM190800 16006KT P6SM VCSH SCT020 BKN200
     FM191400 04007KT P6SM VCSH SCT025 BKN200=



000
FTUS42 KJAX 181700
TAFCRG
TAF
KCRG 181732Z 1818/1918 VRB03KT P6SM FEW030 BKN250
     FM181900 10008KT P6SM VCSH BKN035 BKN250
     FM190300 14005KT P6SM FEW015 SCT040 BKN200
     FM190800 00000KT P6SM SCT015 BKN200
     FM191400 04006KT P6SM VCSH SCT025 BKN200=



000
FTUS42 KJAX 181700
TAFJAX
TAF
KJAX 181732Z 1818/1918 VRB03KT P6SM FEW030 BKN250
     FM182000 10007KT P6SM VCSH BKN035 BKN250
     FM190200 15004KT P6SM FEW015 SCT040 BKN200
     FM190800 00000KT P6SM SCT015 BKN200
     FM191400 06006KT P6SM VCSH SCT025 BKN200=



000
FTUS42 KJAX 181200 AAA
TAFGNV
TAF AMD
KGNV 181234Z 1813/1912 00000KT P6SM FEW250
     FM181500 VRB03KT P6SM SCT040 SCT250
     FM182000 10006KT P6SM SCT035
     FM190200 00000KT P6SM SCT250
     FM191000 00000KT 4SM BR FEW010 SCT250=



000
FTUS42 KJAX 181100
TAFJAX
TAF
KJAX 181123Z 1812/1912 VRB03KT P6SM FEW020 FEW250
     FM181900 10007KT P6SM VCSH BKN040
     FM190200 15004KT P6SM SCT040 BKN200
     FM190900 00000KT P6SM SCT010 SCT200=



000
FTUS42 KJAX 181100
TAFCRG
TAF
KCRG 181123Z 1812/1912 VRB03KT P6SM FEW015 FEW250
     FM181600 VRB03KT P6SM VCSH SCT035 SCT250
     FM181900 10008KT P6SM VCSH BKN035
     FM190200 15004KT P6SM VCSH SCT035 BKN100=



000
FTUS42 KJAX 181100
TAFGNV
TAF
KGNV 181123Z 1812/1912 00000KT P6SM FEW250
      TEMPO 1812/1813 4SM BR
     FM181500 VRB03KT P6SM SCT040 SCT250
     FM182000 10006KT P6SM SCT035
     FM190200 00000KT P6SM SCT250
     FM191000 00000KT 4SM BR FEW010 SCT250=



000
FTUS42 KJAX 181100
TAFSSI
TAF
KSSI 181123Z 1812/1912 VRB04KT P6SM FEW010 SCT250
     FM181600 11005KT P6SM SCT035
     FM181900 12010KT P6SM VCSH BKN035
     FM190200 11005KT P6SM SCT035 SCT250=



000
FTUS42 KJAX 181100 AAC
TAFJAX
TAF AMD
KJAX 181109Z 1811/1906 VRB03KT P6SM FEW020 SCT250
      TEMPO 1811/1812 4SM BR SCT010
     FM181900 10007KT P6SM VCSH BKN040
     FM190200 15004KT P6SM SCT040 BKN200=



000
FTUS42 KJAX 181100 AAC
TAFGNV
TAF AMD
KGNV 181109Z 1811/1906 00000KT P6SM FEW250
      TEMPO 1811/1812 4SM BR SCT010
     FM181500 VRB03KT P6SM SCT040 SCT250
     FM182000 10006KT P6SM SCT035
     FM190200 00000KT P6SM SCT250=



000
FTUS42 KJAX 180900 AAA
TAFSSI
TAF AMD
KSSI 180905Z 1809/1906 VRB04KT P6SM FEW010 SCT100
     FM181600 11005KT P6SM SCT035
     FM181900 12010KT P6SM VCSH BKN035
     FM190200 11005KT P6SM SCT035 SCT250=



000
FTUS42 KJAX 180900 AAB
TAFGNV
TAF AMD
KGNV 180904Z 1809/1906 00000KT P6SM FEW250
      TEMPO 1810/1812 3SM BR SCT010
     FM181500 VRB03KT P6SM SCT040 SCT250
     FM182000 10006KT P6SM SCT035
     FM190200 00000KT P6SM SCT250=



000
FTUS42 KJAX 180900 AAA
TAFCRG
TAF AMD
KCRG 180903Z 1809/1906 VRB03KT P6SM SCT015 SCT250
     FM181600 VRB03KT P6SM VCSH SCT035 SCT250
     FM181900 10008KT P6SM VCSH BKN035
     FM190200 15004KT P6SM VCSH SCT035 BKN100=



000
FTUS42 KJAX 180900 AAB
TAFJAX
TAF AMD
KJAX 180902Z 1809/1906 VRB03KT P6SM SCT250
      TEMPO 1810/1812 4SM BR SCT010
     FM181900 10007KT P6SM VCSH BKN040
     FM190200 15004KT P6SM SCT040 BKN200=



000
FTUS42 KJAX 180800 AAA
TAFJAX
TAF AMD
KJAX 180801Z 1808/1906 00000KT P6SM SCT020 SCT250
     FM180900 00000KT 4SM BR SCT002
     FM181200 VRB03KT P6SM FEW025 SCT250
     FM181900 10007KT P6SM VCSH BKN040
     FM190200 15004KT P6SM SCT040 BKN200=



000
FTUS42 KJAX 180800 AAA
TAFGNV
TAF AMD
KGNV 180801Z 1808/1906 00000KT P6SM FEW250
     FM181000 00000KT 3SM BR SCT002
      TEMPO 1810/1812 1SM BR
     FM181200 00000KT P6SM SCT010
     FM181500 VRB03KT P6SM SCT040 SCT250
     FM182000 10006KT P6SM SCT035
     FM190200 00000KT P6SM SCT250=



000
FTUS42 KJAX 180500
TAFJAX
TAF
KJAX 180521Z 1806/1906 00000KT P6SM SCT020 SCT250
     FM180800 00000KT 4SM BR SCT002
     FM181200 VRB03KT P6SM FEW025 SCT250
     FM181900 10007KT P6SM VCSH BKN040
     FM190200 15004KT P6SM SCT040 BKN200=



000
FTUS42 KJAX 180500
TAFGNV
TAF
KGNV 180521Z 1806/1906 00000KT P6SM FEW250
     FM180800 00000KT 3SM BR SCT002
      TEMPO 1808/1811 1SM BR
     FM181200 00000KT P6SM SCT010
     FM181500 VRB03KT P6SM SCT040 SCT250
     FM182000 10006KT P6SM SCT035
     FM190200 00000KT P6SM SCT250=



000
FTUS42 KJAX 180500
TAFSSI
TAF
KSSI 180521Z 1806/1906 VRB04KT P6SM SCT100
     FM180900 VRB03KT P6SM FEW008 SCT020
     FM181600 11005KT P6SM SCT035
     FM181900 12010KT P6SM VCSH BKN035
     FM190200 11005KT P6SM SCT035 SCT250=



000
FTUS42 KJAX 180500
TAFCRG
TAF
KCRG 180521Z 1806/1906 VRB03KT P6SM SCT250
     FM180900 00000KT P6SM SCT010
     FM181600 VRB03KT P6SM VCSH SCT035 SCT250
     FM181900 10008KT P6SM VCSH BKN035
     FM190200 15004KT P6SM VCSH SCT035 BKN100=



000
FTUS42 KJAX 180400 AAC
TAFSSI
TAF AMD
KSSI 180442Z 1805/1824 15004KT P6SM VCSH BKN035
     FM180700 VRB03KT P6SM FEW008 SCT020
     FM181600 11005KT P6SM SCT035 SCT250=



000
FTUS42 KJAX 180300 AAB
TAFJAX
TAF AMD
KJAX 180356Z 1804/1824 17003KT P6SM VCSH FEW035 SCT250
     FM180600 00000KT P6SM SCT250
     FM180800 00000KT 4SM BR SCT002
     FM181200 00000KT P6SM FEW015
     FM181500 VRB03KT P6SM SCT040 SCT250=



000
FTUS42 KJAX 180300 AAB
TAFSSI
TAF AMD
KSSI 180355Z 1804/1824 15004KT P6SM VCSH FEW030 SCT250
      TEMPO 1804/1805 2SM TSRA BR BKN030CB
     FM180700 VRB03KT P6SM FEW008 SCT020
     FM181600 11005KT P6SM SCT035 SCT250=



000
FTUS42 KJAX 180200 AAA
TAFCRG
TAF AMD
KCRG 180245Z 1803/1824 VRB03KT P6SM FEW035
     FM180800 00000KT 5SM BR SCT002
     FM181200 00000KT P6SM FEW015
     FM181500 VRB03KT P6SM SCT035 SCT250=



000
FTUS42 KJAX 180200 AAA
TAFGNV
TAF AMD
KGNV 180245Z 1803/1824 VRB02KT P6SM FEW250
     FM180800 00000KT 3SM BR SCT002
      TEMPO 1808/1811 1SM BR
     FM181200 00000KT P6SM FEW008
     FM181500 29003KT P6SM SCT040 SCT250=



000
FTUS42 KJAX 180200 AAA
TAFJAX
TAF AMD
KJAX 180245Z 1803/1824 17003KT P6SM VCSH FEW035 SCT250
     FM180500 00000KT 6SM BR SCT250
     FM180800 00000KT 4SM BR SCT002
     FM181200 00000KT P6SM FEW015
     FM181500 VRB03KT P6SM SCT040 SCT250=



000
FTUS42 KJAX 180200 AAA
TAFSSI
TAF AMD
KSSI 180245Z 1803/1824 15004KT P6SM VCSH FEW030 SCT250
     FM180700 VRB03KT P6SM FEW008 SCT020
     FM181600 11005KT P6SM SCT035 SCT250=



000
FTUS42 KJAX 172300
TAFJAX
TAF
KJAX 172340Z 1800/1824 13005KT P6SM VCSH FEW035 SCT250
     FM180300 VRB03KT P6SM FEW035 SCT250
     FM180800 00000KT 4SM BR SCT002
     FM181200 00000KT P6SM FEW015
     FM181500 VRB03KT P6SM SCT040 SCT250=



000
FTUS42 KJAX 172300
TAFSSI
TAF
KSSI 172340Z 1800/1824 16004KT P6SM FEW030 SCT250
     FM180700 VRB03KT P6SM FEW008 SCT020
     FM181600 11005KT P6SM SCT035 SCT250=



000
FTUS42 KJAX 172300
TAFCRG
TAF
KCRG 172340Z 1800/1824 11005KT P6SM FEW035
     FM180300 VRB03KT P6SM FEW040
     FM180800 00000KT 5SM BR SCT002
     FM181200 00000KT P6SM FEW015
     FM181500 VRB03KT P6SM SCT035 SCT250=



000
FTUS42 KJAX 172300
TAFGNV
TAF
KGNV 172340Z 1800/1824 12004KT P6SM SCT035
     FM180300 VRB02KT P6SM SCT040
     FM180800 00000KT 3SM BR SCT002
     FM181200 00000KT P6SM FEW008
     FM181500 29003KT P6SM SCT040 SCT250=



000
FTUS42 KJAX 172200 AAC
TAFSSI
TAF AMD
KSSI 172210Z 1722/1818 11007KT P6SM VCSH FEW035 BKN250
     FM180000 16004KT P6SM FEW030 SCT250
     FM180700 VRB03KT P6SM SCT040
     FM181300 VRB05KT P6SM SKC=



000
FTUS42 KJAX 172100 AAB
TAFSSI
TAF AMD
KSSI 172118Z 1721/1818 12007KT P6SM VCTS SCT035CB BKN250
      TEMPO 1721/1723 VRB15G25KT 3SM TSRA BKN020CB
     FM180000 16004KT P6SM FEW030 SCT250
     FM180700 VRB03KT P6SM SCT040
     FM181300 VRB05KT P6SM SKC=



000
FTUS42 KJAX 172000 AAA
TAFSSI
TAF AMD
KSSI 172058Z 1721/1818 12007KT P6SM VCTS SCT035CB BKN250
     FM180000 16004KT P6SM FEW030 SCT250
     FM180700 VRB03KT P6SM SCT040
     FM181300 VRB05KT P6SM SKC=



000
FTUS42 KJAX 171800 AAA
TAFGNV
TAF AMD
KGNV 171812Z 1718/1818 VRB05KT P6SM VCSH SCT025 BKN250
      TEMPO 1718/1720 SHRA BKN025
     FM172000 06006KT P6SM VCSH SCT035
     FM180300 VRB03KT P6SM SCT040
     FM180800 00000KT 2SM BR SCT002
     FM181300 VRB05KT P6SM FEW005=



000
FTUS42 KJAX 171700
TAFSSI
TAF
KSSI 171735Z 1718/1818 10006KT P6SM SCT030
     FM172000 06006KT P6SM VCSH SCT035
     FM180700 VRB03KT P6SM SCT040
     FM181300 VRB05KT P6SM SKC=



000
FTUS42 KJAX 171700
TAFCRG
TAF
KCRG 171735Z 1718/1818 VRB06KT P6SM VCSH SCT025 BKN250
     FM172000 06006KT P6SM VCSH SCT035
     FM180300 VRB03KT P6SM SCT040
     FM180800 00000KT 3SM BR SCT002
     FM181300 VRB05KT P6SM FEW005=



000
FTUS42 KJAX 171700
TAFJAX
TAF
KJAX 171735Z 1718/1818 36006KT P6SM VCSH SCT025 BKN250
     FM172000 06006KT P6SM VCSH SCT035
     FM180300 VRB03KT P6SM SCT040
     FM180800 00000KT 4SM BR SCT002
     FM181300 VRB05KT P6SM FEW005=



000
FTUS42 KJAX 171700
TAFGNV
TAF
KGNV 171735Z 1718/1818 VRB05KT P6SM VCSH SCT025 BKN250
     FM172000 06006KT P6SM VCSH SCT035
     FM180300 VRB03KT P6SM SCT040
     FM180800 00000KT 2SM BR SCT002
     FM181300 VRB05KT P6SM FEW005=



000
FTUS42 KJAX 171300 AAA
TAFGNV
TAF AMD
KGNV 171354Z 1714/1812 VRB03KT P6SM SKC
     FM171800 32005KT P6SM VCTS SCT025CB BKN250
     FM180200 VRB03KT P6SM SCT200
     FM180900 00000KT 4SM BR SCT200=



000
FTUS42 KJAX 171300 AAC
TAFCRG
TAF AMD
KCRG 171334Z 1714/1812 31007KT P6SM FEW005 SCT060 BKN120
     FM171500 32007KT P6SM VCSH SCT030 BKN100
     FM171900 02006KT P6SM VCTS SCT035CB
     FM180100 VRB03KT P6SM SCT200=



000
FTUS42 KJAX 171300 AAA
TAFJAX
TAF AMD
KJAX 171333Z 1714/1812 32006KT P6SM SCT005 BKN120 BKN250
     FM171600 32007KT P6SM VCSH SCT030 BKN100
     FM172000 02006KT P6SM VCTS SCT035CB
     FM180100 VRB03KT P6SM SCT200=



000
FTUS42 KJAX 171200 AAB
TAFJAX
TAF AMD
KJAX 171230Z 1713/1812 27005KT P6SM VCSH SCT010 BKN060 BKN250
      TEMPO 1713/1714 4SM BR BKN004
     FM171400 32006KT P6SM VCSH SCT025 BKN080 BKN250
     FM171600 32007KT P6SM VCSH SCT030 BKN100
     FM172000 02006KT P6SM VCTS SCT035CB
     FM180100 VRB03KT P6SM SCT200=



000
FTUS42 KJAX 171200 AAB
TAFCRG
TAF AMD
KCRG 171204Z 1712/1812 28005KT P6SM VCSH SCT060 BKN150
      TEMPO 1712/1714 4SM SHRA BKN040
     FM171500 32007KT P6SM VCSH SCT030 BKN100
     FM171900 02006KT P6SM VCTS SCT035CB
     FM180100 VRB03KT P6SM SCT200=



000
FTUS42 KJAX 171200 AAA
TAFCRG
TAF AMD
KCRG 171203Z 1712/1812 28005KT P6SM VCSH SCT060 BKN150
      TEMPO 1712/1714 4SM SHRA BKN020
     FM171500 32007KT P6SM VCSH SCT030 BKN100
     FM171900 02006KT P6SM VCTS SCT035CB
     FM180100 VRB03KT P6SM SCT200=



000
FTUS42 KJAX 171200 AAA
TAFJAX
TAF AMD
KJAX 171201Z 1712/1812 27005KT 4SM BR VCSH SCT004 BKN070 BKN250
      TEMPO 1712/1713 2SM BR BKN004
     FM171400 32006KT P6SM VCSH SCT020 BKN250
     FM171600 32007KT P6SM VCSH SCT030 BKN100
     FM172000 02006KT P6SM VCTS SCT035CB
     FM180100 VRB03KT P6SM SCT200=



000
FTUS42 KJAX 171100
TAFSSI
TAF
KSSI 171136Z 1712/1812 31004KT P6SM SCT020 BKN100
     FM171800 02005KT P6SM VCSH SCT020 BKN100
     FM180200 VRB04KT P6SM SCT200=



000
FTUS42 KJAX 171100
TAFJAX
TAF
KJAX 171136Z 1712/1812 27005KT 4SM BR SCT002 BKN070 BKN250
      TEMPO 1712/1713 1/2SM FG BKN002
     FM171400 32006KT P6SM SCT020 BKN250
     FM171600 32007KT P6SM VCSH SCT030 BKN100
     FM172000 02006KT P6SM VCTS SCT035CB
     FM180100 VRB03KT P6SM SCT200=



000
FTUS42 KJAX 171100
TAFCRG
TAF
KCRG 171136Z 1712/1812 28005KT P6SM SCT045 BKN150
      TEMPO 1712/1713 4SM BR BKN005
     FM171500 32007KT P6SM VCSH SCT030 BKN100
     FM171900 02006KT P6SM VCTS SCT035CB
     FM180100 VRB03KT P6SM SCT200=



000
FTUS42 KJAX 171100
TAFGNV
TAF
KGNV 171136Z 1712/1812 VRB03KT P6SM SCT025 BKN150
     FM171400 29005KT P6SM VCSH SCT025 BKN100
     FM171800 32005KT P6SM VCTS SCT035CB BKN120
     FM180200 VRB03KT P6SM SCT200
     FM180900 00000KT 4SM BR SCT200=



000
FTUS42 KJAX 171100 AAC
TAFCRG
TAF AMD
KCRG 171111Z 1711/1806 30006KT P6SM SCT020 BKN150
      TEMPO 1711/1713 3SM BR BKN003
     FM171500 32007KT P6SM VCSH SCT030 BKN100
     FM171900 02006KT P6SM VCTS SCT035CB
     FM180100 VRB03KT P6SM SCT200=



000
FTUS42 KJAX 171100 AAD
TAFJAX
TAF AMD
KJAX 171110Z 1711/1806 27005KT P6SM SCT010 BKN100
      TEMPO 1711/1713 1SM BR BKN002
     FM171600 32007KT P6SM VCSH SCT010 BKN100
     FM172000 02006KT P6SM VCTS SCT035CB
     FM180100 VRB03KT P6SM SCT200=



000
FTUS42 KJAX 170900 AAB
TAFCRG
TAF AMD
KCRG 170953Z 1710/1806 30006KT P6SM BKN150
     FM171500 32007KT P6SM VCSH SCT030 BKN100
     FM171900 02006KT P6SM VCTS SCT035CB
     FM180100 VRB03KT P6SM SCT200=



000
FTUS42 KJAX 170900 AAC
TAFJAX
TAF AMD
KJAX 170952Z 1710/1806 27005KT P6SM SCT020 BKN100
     FM171600 32007KT P6SM VCSH SCT030 BKN100
     FM172000 02006KT P6SM VCTS SCT035CB
     FM180100 VRB03KT P6SM SCT200=



000
FTUS42 KJAX 170800 CCA
TAFJAX
TAF COR
KJAX 170805Z 1708/1806 27005KT P6SM SCT010 BKN100
      TEMPO 1710/1712 BKN010
     FM171600 32007KT P6SM VCSH SCT030 BKN100
     FM172000 02006KT P6SM VCTS SCT035CB
     FM180100 VRB03KT P6SM SCT200=



000
FTUS42 KJAX 170800 AAB
TAFSSI
TAF AMD
KSSI 170803Z 1708/1806 31004KT P6SM SCT020 BKN100
     FM171800 02005KT P6SM VCSH SCT020 BKN100
     FM180200 VRB04KT P6SM SCT200=



000
FTUS42 KJAX 170800 AAA
TAFCRG
TAF AMD
KCRG 170802Z 1708/1806 30006KT P6SM SCT010 BKN150
      TEMPO 1710/1712 BKN010
     FM171500 32007KT P6SM VCSH SCT030 BKN100
     FM171900 02006KT P6SM VCTS SCT035CB
     FM180100 VRB03KT P6SM SCT200=



000
FTUS42 KJAX 170800 AAB
TAFJAX
TAF AMD
KJAX 170801Z 1708/1806 27005KT P6SM SCT010 BKN100
      TEMPO 1710/1712 BKN010
     FM171600 32007KT P6SM VCSH SCT030 BKN100
     FM172000 02006KT P6SM VCTS SCT035CB
     FM180100 VRB03KT P6SM SCT200=



000
FTUS42 KJAX 170700 AAA
TAFJAX
TAF AMD
KJAX 170735Z 1708/1806 VRB04KT P6SM SCT005 BKN015
      TEMPO 1708/1712 BKN005
     FM171200 30005KT P6SM SCT015 BKN035
     FM171600 32007KT P6SM VCSH SCT030 BKN100
     FM172000 02006KT P6SM VCTS SCT035CB
     FM180100 VRB03KT P6SM SCT200=



000
FTUS42 KJAX 170700 AAB
TAFGNV
TAF AMD
KGNV 170700Z 1707/1806 25005KT P6SM SCT025 BKN100
     FM171400 29005KT P6SM VCSH SCT025 BKN100
     FM171800 32005KT P6SM VCTS SCT035CB BKN120
     FM180200 VRB03KT P6SM SCT200=



000
FTUS42 KJAX 170600 AAA
TAFSSI
TAF AMD
KSSI 170600Z 1706/1806 VRB04KT P6SM SCT020 BKN035
      TEMPO 1706/1710 BKN020
     FM171000 31005KT P6SM SCT010 BKN020
     FM171800 02005KT P6SM VCSH SCT020 BKN100
     FM180200 VRB04KT P6SM SCT200=



000
FTUS42 KJAX 170500 AAA
TAFJAX
TAF AMD
KJAX 170544Z 1706/1806 VRB04KT P6SM SCT003 BKN150
      TEMPO 1706/1710 BKN003
     FM171600 32007KT P6SM VCSH SCT030 BKN100
     FM172000 02006KT P6SM VCTS SCT035CB
     FM180100 VRB03KT P6SM SCT200=



000
FTUS42 KJAX 170500 AAA
TAFGNV
TAF AMD
KGNV 170532Z 1706/1806 25005KT P6SM SCT005 BKN100
      TEMPO 1706/1710 BKN005
     FM171400 29005KT P6SM VCSH SCT025 BKN100
     FM171800 32005KT P6SM VCTS SCT035CB BKN120
     FM180200 VRB03KT P6SM SCT200=



000
FTUS42 KJAX 170500
TAFGNV
TAF
KGNV 170525Z 1706/1806 25005KT P6SM SCT005 BKN100
      TEMPO 1708/1712 BKN005
     FM171400 29005KT P6SM VCSH SCT025 BKN100
     FM171800 32005KT P6SM VCTS SCT035CB BKN120
     FM180200 VRB03KT P6SM SCT200=



000
FTUS42 KJAX 170500
TAFCRG
TAF
KCRG 170525Z 1706/1806 30006KT P6SM SCT008 BKN120
      TEMPO 1706/1710 BKN008
     FM171500 32007KT P6SM VCSH SCT030 BKN100
     FM171900 02006KT P6SM VCTS SCT035CB
     FM180100 VRB03KT P6SM SCT200=



000
FTUS42 KJAX 170500
TAFSSI
TAF
KSSI 170525Z 1706/1806 VRB04KT P6SM SCT007 BKN035
      TEMPO 1706/1710 BKN007
     FM171000 31005KT P6SM SCT010 BKN020
     FM171800 02005KT P6SM VCSH SCT020 BKN100
     FM180200 VRB04KT P6SM SCT200=



000
FTUS42 KJAX 170500
TAFJAX
TAF
KJAX 170525Z 1706/1806 VRB04KT P6SM SCT005 BKN150
     FM171600 32007KT P6SM VCSH SCT030 BKN100
     FM172000 02006KT P6SM VCTS SCT035CB
     FM180100 VRB03KT P6SM SCT200=



000
FTUS42 KJAX 170300 AAC
TAFSSI
TAF AMD
KSSI 170359Z 1704/1724 26004KT P6SM VCSH SCT008 BKN035
      TEMPO 1704/1707 BKN008
     FM171200 30003KT P6SM SCT012 BKN020
     FM171600 02005KT P6SM SCT020 SCT100=



000
FTUS42 KJAX 170300 AAC
TAFSSI
TAF AMD
KSSI 170359Z 1704/1724 26004KT P6SM VCSH SCT008 BKN035
      TEMPO 1704/1707 BKN008
     FM171200 30003KT P6SM SCT012 BKN020
     FM171600 02005KT P6SM SCT020 SCT100=



000
FTUS42 KJAX 170300 AAB
TAFGNV
TAF AMD
KGNV 170358Z 1704/1724 25005KT P6SM VCSH SCT008 BKN060
      TEMPO 1704/1707 -RA BKN008
     FM170700 29005KT 5SM BR BKN010 OVC120
     FM171100 27004KT 5SM SHRA BR SCT008 BKN020 OVC120
     FM171400 29005KT P6SM VCSH SCT025 BKN120
     FM171900 31005KT P6SM VCTS SCT035CB BKN120=



000
FTUS42 KJAX 170300 AAB
TAFGNV
TAF AMD
KGNV 170358Z 1704/1724 25005KT P6SM VCSH SCT008 BKN060
      TEMPO 1704/1707 -RA BKN008
     FM170700 29005KT 5SM BR BKN010 OVC120
     FM171100 27004KT 5SM SHRA BR SCT008 BKN020 OVC120
     FM171400 29005KT P6SM VCSH SCT025 BKN120
     FM171900 31005KT P6SM VCTS SCT035CB BKN120=



000
FTUS42 KJAX 170300 AAC
TAFCRG
TAF AMD
KCRG 170357Z 1704/1724 30008KT P6SM SCT010 BKN120
      TEMPO 1705/1708 BKN010
     FM171400 32006KT P6SM VCSH FEW020 SCT250
     FM171900 05006KT P6SM VCTS SCT035CB=



000
FTUS42 KJAX 170300 AAC
TAFCRG
TAF AMD
KCRG 170357Z 1704/1724 30008KT P6SM SCT010 BKN120
      TEMPO 1705/1708 BKN010
     FM171400 32006KT P6SM VCSH FEW020 SCT250
     FM171900 05006KT P6SM VCTS SCT035CB=



000
FTUS42 KJAX 170300 AAB
TAFJAX
TAF AMD
KJAX 170356Z 1704/1724 29006KT P6SM SCT008 BKN040 BKN200
      TEMPO 1705/1709 BKN008
     FM171400 31005KT P6SM VCSH FEW020 SCT120 BKN250
     FM171900 04006KT P6SM VCTS SCT035CB=



000
FTUS42 KJAX 170300 AAB
TAFJAX
TAF AMD
KJAX 170356Z 1704/1724 29006KT P6SM SCT008 BKN040 BKN200
      TEMPO 1705/1709 BKN008
     FM171400 31005KT P6SM VCSH FEW020 SCT120 BKN250
     FM171900 04006KT P6SM VCTS SCT035CB=



000
FTUS42 KJAX 170200 AAB
TAFSSI
TAF AMD
KSSI 170255Z 1703/1724 26004KT P6SM VCSH BKN008 BKN035
      TEMPO 1703/1707 5SM SHRA SCT008 BKN020
     FM171200 30003KT P6SM SCT012 BKN020
     FM171600 02005KT P6SM SCT020 SCT100=



000
FTUS42 KJAX 170200 AAB
TAFCRG
TAF AMD
KCRG 170244Z 1703/1724 26005KT P6SM BKN012 BKN120
      TEMPO 1703/1707 BKN008
     FM171400 32006KT P6SM VCSH FEW020 SCT250
     FM171900 05006KT P6SM VCTS SCT035CB=



000
FTUS42 KJAX 170200 AAA
TAFGNV
TAF AMD
KGNV 170244Z 1703/1724 22005KT P6SM VCSH SCT012 BKN060
      TEMPO 1703/1705 -RA BKN008
     FM170500 29005KT 5SM BR BKN010 OVC120
     FM171100 27004KT 5SM SHRA BR SCT008 BKN020 OVC120
     FM171400 29005KT P6SM VCSH SCT025 BKN120
     FM171900 31005KT P6SM VCTS SCT035CB BKN120=



000
FTUS42 KJAX 170200 AAA
TAFJAX
TAF AMD
KJAX 170244Z 1703/1724 24005KT P6SM VCSH SCT008 BKN015 BKN100
      TEMPO 1703/1707 BKN008
     FM171400 31005KT P6SM VCSH FEW020 SCT120 BKN250
     FM171900 04006KT P6SM VCTS SCT035CB=



000
FTUS42 KJAX 170200 AAA
TAFSSI
TAF AMD
KSSI 170244Z 1703/1724 25004KT P6SM FEW008 SCT012 BKN030
     FM170400 27003KT P6SM VCSH BKN012 OVC060
      TEMPO 1704/1708 5SM SHRA BR BKN008
     FM171200 32003KT P6SM SCT012 BKN020
     FM171500 34003KT P6SM FEW020=



000
FTUS42 KJAX 170000 AAA
TAFCRG
TAF AMD
KCRG 170028Z 1700/1724 23004KT 6SM -RA BR BKN015 BKN100 OVC150
     FM170300 26003KT P6SM SCT020 OVC120
     FM171400 32006KT P6SM VCSH FEW020 SCT250
     FM171900 05006KT P6SM VCTS SCT035CB=



000
FTUS42 KJAX 162300
TAFCRG
TAF
KCRG 162340Z 1700/1724 VRB03KT P6SM VCTS FEW015 SCT030CB BKN120
     FM170200 24004KT P6SM SCT020 OVC120
     FM171400 32006KT P6SM VCSH FEW020 SCT250
     FM171900 05006KT P6SM VCTS SCT035CB=



000
FTUS42 KJAX 162300
TAFJAX
TAF
KJAX 162340Z 1700/1724 24003KT P6SM -RA VCTS SCT025CB SCT050 OVC200
     FM170230 24003KT P6SM SCT020 OVC120
     FM171400 31005KT P6SM VCSH FEW020 SCT250
     FM171900 04006KT P6SM VCTS SCT035CB=



000
FTUS42 KJAX 162300
TAFGNV
TAF
KGNV 162340Z 1700/1724 22005KT P6SM VCSH SCT012 BKN060
      TEMPO 1700/1704 -RA BKN012
     FM171100 27004KT 5SM SHRA BR SCT008 BKN020 OVC120
     FM171400 29005KT P6SM VCSH SCT025 BKN120
     FM171900 31005KT P6SM VCTS SCT035CB BKN120=



000
FTUS42 KJAX 162300
TAFSSI
TAF
KSSI 162340Z 1700/1724 24005KT P6SM VCSH FEW035 SCT100 BKN120
     FM170300 26003KT P6SM SCT020 BKN200
     FM171200 32003KT P6SM BKN020
     FM171500 34003KT P6SM FEW020=



000
FTUS42 KJAX 162200 AAE
TAFCRG
TAF AMD
KCRG 162213Z 1622/1718 24004KT P6SM VCTS SCT025 BKN035CB OVC200
     FM170100 24004KT P6SM SCT020 OVC120
     FM171500 32006KT P6SM FEW020 SCT250=



000
FTUS42 KJAX 162200 AAC
TAFJAX
TAF AMD
KJAX 162213Z 1622/1718 VRB04KT P6SM VCTS FEW010 BKN020CB OVC120
     FM170100 24003KT P6SM SCT020 OVC120
     FM171500 31006KT P6SM FEW020 SCT250=



000
FTUS42 KJAX 162200 AAC
TAFGNV
TAF AMD
KGNV 162213Z 1622/1718 22004KT P6SM VCSH SCT015 BKN040
      TEMPO 1622/1623 5SM SHRA BKN015
     FM171200 26005KT 5SM SHRA BKN020 OVC120
     FM171600 28006KT P6SM SCT020 BKN100=



000
FTUS42 KJAX 162200 AAB
TAFSSI
TAF AMD
KSSI 162213Z 1622/1718 19006KT P6SM VCSH SCT016 BKN030
      TEMPO 1622/1701 VRB12KT 5SM TSRA BKN016CB
     FM170300 26003KT P6SM SCT020 BKN200
     FM171200 32003KT P6SM BKN020
     FM171500 34003KT P6SM FEW020=



000
FTUS42 KJAX 162000 AAB
TAFGNV
TAF AMD
KGNV 162029Z 1620/1718 23003KT P6SM VCSH SCT015 BKN040
      TEMPO 1620/1623 5SM SHRA BKN015
     FM171200 26005KT 5SM SHRA BKN020 OVC100
     FM171600 28006KT P6SM SCT020 BKN100=



000
FTUS42 KJAX 162000 AAA
TAFSSI
TAF AMD
KSSI 162029Z 1620/1718 15007KT P6SM VCSH SCT022 BKN050
      TEMPO 1621/1701 VRB12KT 2SM TSRA BKN020CB
     FM170300 26003KT P6SM SCT020 BKN250
     FM171200 32003KT P6SM BKN020
     FM171500 34003KT P6SM FEW020=



000
FTUS42 KJAX 162000 AAD
TAFCRG
TAF AMD
KCRG 162029Z 1620/1718 25004KT P6SM VCTS SCT025 BKN035CB OVC250
      TEMPO 1620/1623 VRB10G20KT 1 1/2SM TSRA BKN012CB OVC050
     FM170200 24005KT P6SM SCT020 OVC100
     FM171500 32006KT P6SM FEW020 SCT250=



000
FTUS42 KJAX 162000 AAB
TAFJAX
TAF AMD
KJAX 162029Z 1620/1718 23005KT P6SM VCTS FEW008 BKN015CB OVC060
      TEMPO 1620/1622 VRB12G20KT 2SM TSRA SCT007 BKN012CB OVC050
     FM170100 24003KT P6SM SCT020 OVC100
     FM171500 31006KT P6SM FEW020 SCT250=



000
FTUS42 KJAX 161900 AAC
TAFCRG
TAF AMD
KCRG 161933Z 1620/1718 25004KT P6SM VCTS SCT022 BKN035CB OVC250
      TEMPO 1620/1623 VRB10G20KT 1 1/2SM TSRA BKN012CB OVC120
     FM170200 24005KT P6SM SCT020 OVC100
     FM171500 32006KT P6SM FEW020 SCT250=



000
FTUS42 KJAX 161900 AAA
TAFJAX
TAF AMD
KJAX 161919Z 1619/1718 23007KT P6SM VCTS FEW008 BKN015CB OVC060
      TEMPO 1619/1622 VRB12KT 2SM TSRA BKN020CB OVC050
     FM170100 24003KT P6SM SCT020 OVC100
     FM171500 31006KT P6SM FEW020 SCT250=



000
FTUS42 KJAX 161900 AAB
TAFCRG
TAF AMD
KCRG 161916Z 1619/1718 25004KT P6SM VCTS SCT022 BKN035CB OVC250
      TEMPO 1619/1623 3SM TSRA BKN020CB OVC120
     FM170200 24005KT P6SM SCT020 OVC100
     FM171500 32006KT P6SM FEW020 SCT250=



000
FTUS42 KJAX 161700 AAA
TAFGNV
TAF AMD
KGNV 161753Z 1618/1718 25003KT 6SM -RA OVC030
     FM162100 25008KT P6SM OVC100
     FM171200 26005KT 5SM SHRA BKN020 OVC100
     FM171600 28006KT P6SM SCT020 BKN100=



000
FTUS42 KJAX 161700 AAA
TAFCRG
TAF AMD
KCRG 161753Z 1618/1718 25005KT 2SM TSRA BKN030CB
     FM161930 27004KT P6SM VCSH SCT020 OVC100
      TEMPO 1622/1701 VRB12KT 2SM TSRA BKN020CB
     FM170200 24005KT P6SM SCT020 OVC100
     FM171500 32006KT P6SM FEW020 SCT250=



000
FTUS42 KJAX 161700
TAFSSI
TAF
KSSI 161729Z 1618/1718 30006KT P6SM SCT015 BKN030
     FM162000 24007KT P6SM VCSH SCT020 BKN050
      TEMPO 1623/1701 VRB12KT 2SM TSRA BKN025CB
     FM170300 26003KT P6SM SCT020 BKN250
     FM171200 32003KT P6SM BKN020
     FM171500 34003KT P6SM FEW020=



000
FTUS42 KJAX 161700
TAFGNV
TAF
KGNV 161729Z 1618/1718 25003KT 6SM -RA OVC040
     FM162100 25008KT P6SM OVC100
     FM171200 26005KT 5SM SHRA BKN020 OVC100
     FM171600 28006KT P6SM SCT020 BKN100=



000
FTUS42 KJAX 161700
TAFCRG
TAF
KCRG 161729Z 1618/1718 VRB12G22KT 1SM TSRA BKN010 BKN020CB
     FM161930 27004KT P6SM VCSH SCT020 OVC100
      TEMPO 1622/1701 VRB12KT 2SM TSRA BKN020CB
     FM170200 24005KT P6SM SCT020 OVC100
     FM171500 32006KT P6SM FEW020 SCT250=



000
FTUS42 KJAX 161700
TAFJAX
TAF
KJAX 161729Z 1618/1718 27009KT P6SM VCTS SCT020CB BKN080
     FM161900 27009KT 4SM SHRA BKN020
      TEMPO 1621/1623 VRB12KT 2SM TSRA BKN020CB
     FM170100 24003KT P6SM SCT020 OVC100
     FM171500 31006KT P6SM FEW020 SCT250=



000
FTUS42 KJAX 161700 AAA
TAFCRG
TAF AMD
KCRG 161720Z 1617/1712 VRB15G30KT 1/4SM TSRA BKN008 BKN020CB
     FM161800 VRB12G22KT 2SM TSRA BKN010 BKN020CB
      TEMPO 1620/1624 2SM TSRA BKN025CB
     FM170200 25004KT P6SM VCSH SCT040 BKN100
     FM170600 29005KT P6SM SCT100 BKN200=



000
FTUS42 KJAX 161600 AAB
TAFCRG
TAF AMD
KCRG 161629Z 1616/1712 27010KT 4SM -TSRA BKN025CB
     FM161800 27007KT P6SM VCTS SCT025CB BKN040
      TEMPO 1620/1624 2SM TSRA BKN025CB
     FM170200 25004KT P6SM VCSH SCT040 BKN100
     FM170600 29005KT P6SM SCT100 BKN200=



000
FTUS42 KJAX 161600 AAC
TAFSSI
TAF AMD
KSSI 161610Z 1616/1712 27005KT P6SM BKN010
     FM161900 18008KT P6SM -SHRA VCTS SCT030CB BKN050
      TEMPO 1620/1624 3SM TSRA BKN030CB
     FM170100 23005KT P6SM VCSH SCT040 BKN100
     FM170600 30006KT P6SM SCT100 BKN200=



000
FTUS42 KJAX 161600 AAC
TAFGNV
TAF AMD
KGNV 161601Z 1616/1712 25003KT 6SM -RA OVC040
      TEMPO 1616/1619 VRB12G22KT 2SM TSRA BKN025CB
     FM170100 25004KT P6SM VCSH SCT040 BKN100
     FM170800 28003KT P6SM SCT015=



000
FTUS42 KJAX 161500 AAC
TAFJAX
TAF AMD
KJAX 161556Z 1616/1712 28012KT 3SM -TSRA BKN020CB BKN150
     FM161630 27007KT P6SM VCTS SCT025CB BKN040
      TEMPO 1620/1624 2SM TSRA BKN025CB
     FM170200 25004KT P6SM VCSH SCT040 BKN100
     FM170600 29004KT P6SM SCT100 BKN200=



000
FTUS42 KJAX 161500 AAB
TAFJAX
TAF AMD
KJAX 161553Z 1616/1712 28012KT 3SM -TSRA BKN020CB
     FM161700 27007KT P6SM VCTS SCT025CB BKN040
      TEMPO 1620/1624 2SM TSRA BKN025CB
     FM170200 25004KT P6SM VCSH SCT040 BKN100
     FM170600 29004KT P6SM SCT100 BKN200=



000
FTUS42 KJAX 161500 AAA
TAFJAX
TAF AMD
KJAX 161526Z 1615/1712 28007KT P6SM VCSH BKN020 BKN150
     FM161800 27007KT P6SM -SHRA VCTS SCT025CB BKN040
      TEMPO 1620/1624 2SM TSRA BKN025CB
     FM170200 25004KT P6SM VCSH SCT040 BKN100
     FM170600 29004KT P6SM SCT100 BKN200=



000
FTUS42 KJAX 161500 AAB
TAFGNV
TAF AMD
KGNV 161514Z 1615/1712 25003KT 5SM -RA OVC040
      TEMPO 1616/1619 VRB12G22KT 2SM TSRA BKN025CB
     FM170100 25004KT P6SM VCSH SCT040 BKN100
     FM170800 28003KT P6SM SCT015=



000
FTUS42 KJAX 161500 AAB
TAFSSI
TAF AMD
KSSI 161508Z 1615/1712 27005KT P6SM OVC008
     FM161600 25007KT P6SM VCSH SCT010 BKN060
     FM161800 18008KT P6SM -SHRA VCTS SCT030CB BKN050
      TEMPO 1620/1624 3SM TSRA BKN030CB
     FM170100 23005KT P6SM VCSH SCT040 BKN100
     FM170600 30006KT P6SM SCT100 BKN200=



000
FTUS42 KJAX 161200 AAA
TAFCRG
TAF AMD
KCRG 161239Z 1613/1712 25005KT P6SM SCT050
     FM161700 28006KT P6SM VCSH SCT030 BKN100
     FM161900 27007KT P6SM -SHRA VCTS SCT025CB BKN040
      TEMPO 1620/1624 2SM TSRA BKN025CB
     FM170200 25004KT P6SM VCSH SCT040 BKN100
     FM170600 29005KT P6SM SCT100 BKN200=



000
FTUS42 KJAX 161200 AAA
TAFGNV
TAF AMD
KGNV 161225Z 1612/1712 25003KT P6SM SCT015 BKN040
     FM161700 28007KT P6SM -SHRA VCTS SCT025CB BKN040
      TEMPO 1619/1623 2SM TSRA BKN025CB
     FM170100 25004KT P6SM VCSH SCT040 BKN100
     FM170800 28003KT P6SM SCT015=



    US Dept of Commerce
    National Oceanic and Atmospheric Administration
    National Weather Service
    1325 East West Highway
    Silver Spring, MD 20910
    Page Author: NWS Internet Services Team
Disclaimer
Information Quality
Credits
Glossary
Privacy Policy
Freedom of Information Act (FOIA)
About Us
Career Opportunities